createdAt,value
2022-08-20T00:01:14.165Z,7.72
2022-08-20T00:03:44.865Z,7.55
2022-08-20T00:06:22.699Z,7.18
2022-08-20T00:08:50.691Z,7.80
2022-08-20T00:11:24.372Z,7.05
2022-08-20T00:13:57.367Z,7.45
2022-08-20T00:16:27.566Z,8.10
2022-08-20T00:18:54.548Z,8.52
2022-08-20T00:21:23.294Z,7.28
2022-08-20T00:23:55.863Z,7.95
2022-08-20T00:26:25.114Z,8.15
2022-08-20T00:28:52.606Z,8.00
2022-08-20T00:31:23.545Z,8.48
2022-08-20T00:33:51.851Z,8.68
2022-08-20T00:36:19.368Z,8.20
2022-08-20T00:38:47.784Z,9.30
2022-08-20T00:41:24.827Z,8.25
2022-08-20T00:44:16.238Z,8.43
2022-08-20T00:46:45.314Z,7.60
2022-08-20T00:49:29.289Z,8.40
2022-08-20T00:52:07.597Z,7.78
2022-08-20T00:54:45.436Z,8.32
2022-08-20T00:57:24.493Z,8.23
2022-08-20T00:59:53.484Z,7.85
2022-08-20T01:02:25.440Z,9.27
2022-08-20T01:04:55.287Z,9.07
2022-08-20T01:07:34.640Z,9.80
2022-08-20T01:10:19.382Z,8.18
2022-08-20T01:12:49.026Z,9.88
2022-08-20T01:15:30.736Z,9.98
2022-08-20T01:18:00.995Z,10.25
2022-08-20T01:20:39.658Z,10.73
2022-08-20T01:23:34.772Z,10.63
2022-08-20T01:26:13.444Z,9.27
2022-08-20T01:29:10.931Z,11.18
2022-08-20T01:31:41.453Z,9.82
2022-08-20T01:34:16.500Z,11.50
2022-08-20T01:36:53.267Z,9.90
2022-08-20T01:39:29.954Z,9.80
2022-08-20T01:42:15.400Z,10.18
2022-08-20T01:44:47.053Z,11.00
2022-08-20T01:47:20.275Z,10.23
2022-08-20T01:49:52.757Z,10.00
2022-08-20T01:52:34.062Z,10.30
2022-08-20T01:55:02.456Z,10.40
2022-08-20T01:57:29.455Z,11.18
2022-08-20T01:59:56.645Z,12.38
2022-08-20T02:02:24.448Z,12.10
2022-08-20T02:04:51.402Z,11.70
2022-08-20T02:07:23.613Z,12.18
2022-08-20T02:09:50.755Z,11.30
2022-08-20T02:12:18.718Z,13.52
2022-08-20T02:14:54.814Z,12.77
2022-08-20T02:17:25.840Z,11.85
2022-08-20T02:20:13.630Z,13.38
2022-08-20T02:22:53.167Z,12.52
2022-08-20T02:25:27.782Z,11.02
2022-08-20T02:27:57.968Z,12.05
2022-08-20T02:30:38.128Z,11.20
2022-08-20T02:33:09.722Z,11.27
2022-08-20T02:35:38.282Z,12.57
2022-08-20T02:38:05.275Z,12.60
2022-08-20T02:40:32.662Z,13.10
2022-08-20T02:43:01.642Z,12.77
2022-08-20T02:45:31.455Z,12.70
2022-08-20T02:47:59.051Z,12.40
2022-08-20T02:50:27.434Z,13.75
2022-08-20T02:52:54.748Z,12.90
2022-08-20T02:55:27.425Z,12.18
2022-08-20T02:57:59.149Z,12.32
2022-08-20T03:00:28.521Z,15.20
2022-08-20T03:02:55.504Z,13.48
2022-08-20T03:05:22.572Z,14.00
2022-08-20T03:07:53.795Z,13.27
2022-08-20T03:10:27.954Z,13.15
2022-08-20T03:12:55.234Z,12.77
2022-08-20T03:15:22.163Z,12.00
2022-08-20T03:17:49.097Z,12.77
2022-08-20T03:20:16.397Z,12.98
2022-08-20T03:22:43.712Z,11.68
2022-08-20T03:25:11.979Z,12.45
2022-08-20T03:27:38.998Z,13.35
2022-08-20T03:30:12.487Z,13.38
2022-08-20T03:32:39.777Z,12.32
2022-08-20T03:35:11.841Z,12.88
2022-08-20T03:37:39.753Z,12.52
2022-08-20T03:40:17.989Z,16.83
2022-08-20T03:42:45.191Z,13.65
2022-08-20T03:45:17.111Z,13.50
2022-08-20T03:47:47.777Z,14.25
2022-08-20T03:50:23.093Z,13.65
2022-08-20T03:52:52.863Z,15.05
2022-08-20T03:55:21.937Z,14.63
2022-08-20T03:57:56.154Z,14.27
2022-08-20T04:00:33.893Z,13.30
2022-08-20T04:03:01.167Z,13.23
2022-08-20T04:05:31.106Z,12.70
2022-08-20T04:08:03.210Z,15.13
2022-08-20T04:10:32.164Z,15.05
2022-08-20T04:13:03.535Z,12.40
2022-08-20T04:15:32.276Z,13.68
2022-08-20T04:17:59.439Z,13.32
2022-08-20T04:20:27.417Z,12.45
2022-08-20T04:22:59.077Z,13.07
2022-08-20T04:25:35.874Z,12.25
2022-08-20T04:28:07.912Z,12.40
2022-08-20T04:30:35.833Z,11.95
2022-08-20T04:33:03.491Z,11.90
2022-08-20T04:35:31.330Z,12.60
2022-08-20T04:38:14.447Z,13.77
2022-08-20T04:40:53.510Z,13.77
2022-08-20T04:43:23.696Z,15.38
2022-08-20T04:45:54.329Z,15.15
2022-08-20T04:48:25.065Z,13.30
2022-08-20T04:50:53.798Z,13.02
2022-08-20T04:53:26.010Z,13.40
2022-08-20T04:55:55.415Z,13.60
2022-08-20T04:58:36.979Z,12.70
2022-08-20T05:01:11.853Z,12.35
2022-08-20T05:03:40.657Z,14.50
2022-08-20T05:06:11.927Z,12.52
2022-08-20T05:08:40.418Z,12.63
2022-08-20T05:11:32.843Z,12.93
2022-08-20T05:13:56.426Z,13.57
2022-08-20T05:16:24.430Z,12.93
2022-08-20T05:18:52.693Z,13.85
2022-08-20T05:21:21.647Z,13.05
2022-08-20T05:23:49.314Z,12.65
2022-08-20T05:26:20.154Z,12.27
2022-08-20T05:31:32.262Z,10.95
2022-08-20T05:34:10.777Z,12.95
2022-08-20T05:36:40.948Z,12.30
2022-08-20T05:39:09.092Z,12.70
2022-08-20T05:41:36.693Z,12.18
2022-08-20T05:44:04.309Z,11.52
2022-08-20T05:46:32.083Z,12.88
2022-08-20T05:49:01.582Z,11.98
2022-08-20T05:51:29.641Z,13.32
2022-08-20T05:53:59.120Z,13.48
2022-08-20T05:56:30.428Z,13.20
2022-08-20T05:59:04.041Z,12.30
2022-08-20T06:01:33.802Z,11.60
2022-08-20T06:04:19.474Z,13.00
2022-08-20T06:06:47.740Z,12.80
2022-08-20T06:09:30.851Z,12.57
2022-08-20T06:12:04.399Z,14.23
2022-08-20T06:14:32.912Z,12.45
2022-08-20T06:17:16.563Z,12.23
2022-08-20T06:19:47.115Z,11.23
2022-08-20T06:22:20.353Z,11.65
2022-08-20T06:24:55.247Z,10.75
2022-08-20T06:27:22.909Z,12.57
2022-08-20T06:29:51.070Z,11.68
2022-08-20T06:32:31.748Z,12.40
2022-08-20T06:35:02.180Z,11.00
2022-08-20T06:37:31.932Z,11.55
2022-08-20T06:40:06.935Z,10.80
2022-08-20T06:42:34.072Z,11.23
2022-08-20T06:45:04.822Z,10.73
2022-08-20T06:49:59.726Z,9.88
2022-08-20T06:52:29.909Z,10.77
2022-08-20T06:55:16.471Z,12.77
2022-08-20T06:57:48.246Z,10.45
2022-08-20T07:00:19.627Z,9.93
2022-08-20T07:02:48.045Z,11.45
2022-08-20T07:05:16.402Z,10.05
2022-08-20T07:07:50.955Z,10.13
2022-08-20T07:10:20.903Z,10.07
2022-08-20T07:12:50.532Z,9.00
2022-08-20T07:15:19.376Z,9.88
2022-08-20T07:18:00.888Z,10.18
2022-08-20T07:20:31.727Z,10.02
2022-08-20T07:23:00.567Z,10.13
2022-08-20T07:25:29.196Z,10.98
2022-08-20T07:28:07.006Z,9.57
2022-08-20T07:30:56.914Z,10.02
2022-08-20T07:35:59.635Z,8.27
2022-08-20T07:38:29.283Z,8.80
2022-08-20T07:41:15.762Z,9.18
2022-08-20T07:43:45.670Z,8.35
2022-08-20T07:46:15.606Z,8.82
2022-08-20T07:48:46.861Z,9.07
2022-08-20T07:51:19.250Z,8.88
2022-08-20T07:53:48.300Z,9.48
2022-08-20T07:56:24.540Z,9.40
2022-08-20T07:58:55.548Z,8.27
2022-08-20T08:01:30.441Z,9.18
2022-08-20T08:03:59.451Z,8.70
2022-08-20T08:06:31.148Z,9.20
2022-08-20T08:09:10.837Z,7.53
2022-08-20T08:11:46.351Z,8.25
2022-08-20T08:14:13.871Z,8.45
2022-08-20T08:16:45.184Z,8.43
2022-08-20T08:19:15.791Z,8.90
2022-08-20T08:21:44.247Z,9.05
2022-08-20T08:24:15.499Z,8.50
2022-08-20T08:26:46.438Z,9.15
2022-08-20T08:29:13.474Z,8.27
2022-08-20T08:31:41.269Z,7.88
2022-08-20T08:34:08.966Z,8.13
2022-08-20T08:36:35.790Z,8.85
2022-08-20T08:39:02.802Z,8.85
2022-08-20T08:41:48.081Z,9.13
2022-08-20T08:44:23.271Z,8.18
2022-08-20T08:46:58.475Z,8.27
2022-08-20T08:49:38.054Z,8.32
2022-08-20T08:52:41.039Z,8.15
2022-08-20T08:55:19.506Z,8.82
2022-08-20T08:57:49.462Z,8.60
2022-08-20T09:00:21.792Z,8.23
2022-08-20T09:03:09.792Z,8.98
2022-08-20T09:05:52.829Z,9.65
2022-08-20T09:08:28.937Z,9.30
2022-08-20T09:11:05.191Z,8.70
2022-08-20T09:13:32.971Z,9.48
2022-08-20T09:16:00.110Z,9.55
2022-08-20T09:18:26.941Z,9.60
2022-08-20T09:20:54.496Z,9.10
2022-08-20T09:23:21.371Z,9.05
2022-08-20T09:25:48.324Z,8.43
2022-08-20T09:28:15.302Z,9.68
2022-08-20T09:30:42.932Z,8.50
2022-08-20T09:33:11.580Z,9.48
2022-08-20T09:35:40.094Z,10.07
2022-08-20T09:38:08.208Z,9.30
2022-08-20T09:40:35.260Z,9.15
2022-08-20T09:43:03.521Z,8.90
2022-08-20T09:45:31.504Z,9.93
2022-08-20T09:47:59.281Z,8.95
2022-08-20T09:50:30.814Z,10.63
2022-08-20T09:55:42.233Z,9.57
2022-08-20T09:58:36.219Z,10.70
2022-08-20T10:01:13.874Z,10.55
2022-08-20T10:03:43.502Z,9.93
2022-08-20T10:06:11.340Z,11.57
2022-08-20T10:08:38.599Z,9.85
2022-08-20T10:11:06.120Z,11.30
2022-08-20T10:13:32.969Z,10.48
2022-08-20T10:15:59.861Z,10.90
2022-08-20T10:18:26.738Z,11.30
2022-08-20T10:20:53.617Z,10.30
2022-08-20T10:23:20.469Z,12.38
2022-08-20T10:25:47.542Z,10.50
2022-08-20T10:28:14.620Z,10.68
2022-08-20T10:30:41.542Z,10.65
2022-08-20T10:33:08.402Z,11.05
2022-08-20T10:35:35.555Z,10.88
2022-08-20T10:38:02.505Z,12.55
2022-08-20T10:40:29.450Z,10.75
2022-08-20T10:42:56.305Z,10.10
2022-08-20T10:45:25.716Z,9.93
2022-08-20T10:47:52.804Z,10.10
2022-08-20T10:50:20.124Z,11.00
2022-08-20T10:52:47.555Z,10.10
2022-08-20T10:55:15.298Z,10.45
2022-08-20T10:57:43.385Z,11.13
2022-08-20T11:00:15.087Z,11.05
2022-08-20T11:02:42.020Z,10.40
2022-08-20T11:05:09.518Z,9.52
2022-08-20T11:07:54.922Z,9.30
2022-08-20T11:10:27.067Z,9.82
2022-08-20T11:12:54.232Z,10.70
2022-08-20T11:15:21.238Z,9.77
2022-08-20T11:17:48.225Z,10.00
2022-08-20T11:20:18.553Z,11.80
2022-08-20T11:22:45.761Z,8.40
2022-08-20T11:25:13.402Z,9.90
2022-08-20T11:27:45.143Z,9.40
2022-08-20T11:30:19.544Z,11.85
2022-08-20T11:32:46.437Z,10.18
2022-08-20T11:35:41.122Z,10.95
2022-08-20T11:38:02.426Z,12.10
2022-08-20T11:40:31.551Z,11.95
2022-08-20T11:43:14.203Z,11.52
2022-08-20T11:45:44.248Z,12.20
2022-08-20T11:48:11.234Z,12.25
2022-08-20T11:50:38.328Z,11.57
2022-08-20T11:53:05.167Z,12.10
2022-08-20T11:55:32.667Z,11.55
2022-08-20T11:58:00.614Z,11.90
2022-08-20T12:00:33.444Z,11.68
2022-08-20T12:03:04.984Z,11.18
2022-08-20T12:05:33.045Z,10.82
2022-08-20T12:08:03.673Z,10.57
2022-08-20T12:10:31.173Z,11.80
2022-08-20T12:12:58.547Z,11.52
2022-08-20T12:15:26.876Z,10.98
2022-08-20T12:17:54.303Z,11.57
2022-08-20T12:20:23.397Z,11.13
2022-08-20T12:22:51.283Z,10.70
2022-08-20T12:25:18.396Z,11.18
2022-08-20T12:27:46.805Z,11.23
2022-08-20T12:30:22.037Z,12.13
2022-08-20T12:32:49.236Z,9.90
2022-08-20T12:35:18.644Z,9.88
2022-08-20T12:37:47.022Z,10.05
2022-08-20T12:40:31.788Z,8.85
2022-08-20T12:42:58.977Z,8.25
2022-08-20T12:45:26.000Z,8.30
2022-08-20T12:47:53.022Z,8.43
2022-08-20T12:50:28.498Z,6.72
2022-08-20T12:52:58.105Z,6.60
2022-08-20T12:55:25.492Z,6.35
2022-08-20T12:57:57.052Z,6.75
2022-08-20T13:00:35.751Z,7.05
2022-08-20T13:03:06.030Z,6.00
2022-08-20T13:05:35.590Z,6.40
2022-08-20T13:08:08.157Z,6.60
2022-08-20T13:10:42.425Z,6.90
2022-08-20T13:13:09.585Z,6.45
2022-08-20T13:15:37.461Z,6.60
2022-08-20T13:18:06.324Z,6.38
2022-08-20T13:20:34.848Z,7.10
2022-08-20T13:23:04.893Z,7.03
2022-08-20T13:25:32.662Z,7.05
2022-08-20T13:28:03.724Z,6.57
2022-08-20T13:30:32.733Z,6.28
2022-08-20T13:32:59.609Z,6.50
2022-08-20T13:35:26.640Z,6.32
2022-08-20T13:37:53.617Z,6.07
2022-08-20T13:40:20.591Z,5.65
2022-08-20T13:42:47.528Z,6.95
2022-08-20T13:45:14.612Z,5.32
2022-08-20T13:47:43.056Z,5.43
2022-08-20T13:50:18.498Z,5.35
2022-08-20T13:52:46.623Z,4.70
2022-08-20T13:55:19.332Z,5.72
2022-08-20T13:57:47.304Z,5.22
2022-08-20T14:00:31.373Z,5.40
2022-08-20T14:03:05.288Z,5.45
2022-08-20T14:05:33.994Z,4.45
2022-08-20T14:08:21.326Z,4.25
2022-08-20T14:10:51.622Z,3.80
2022-08-20T14:13:24.401Z,4.82
2022-08-20T14:15:52.131Z,4.03
2022-08-20T14:18:19.988Z,4.10
2022-08-20T14:20:46.921Z,3.80
2022-08-20T14:23:15.046Z,4.28
2022-08-20T14:25:46.899Z,4.03
2022-08-20T14:28:20.250Z,4.32
2022-08-20T14:30:52.925Z,2.42
2022-08-20T14:33:21.931Z,1.50
2022-08-20T14:35:48.781Z,1.15
2022-08-20T14:38:15.665Z,1.10
2022-08-20T14:40:42.494Z,1.30
2022-08-20T14:43:09.332Z,1.42
2022-08-20T14:45:36.174Z,0.90
2022-08-20T14:48:09.104Z,1.00
2022-08-20T14:50:37.466Z,0.70
2022-08-20T14:53:05.413Z,0.80
2022-08-20T14:55:37.306Z,0.88
2022-08-20T14:58:13.176Z,1.35
2022-08-20T15:00:41.708Z,1.23
2022-08-20T15:03:08.657Z,2.05
2022-08-20T15:05:39.562Z,0.90
2022-08-20T15:08:10.425Z,0.60
2022-08-20T15:13:06.503Z,0.77
2022-08-20T15:15:33.453Z,1.08
2022-08-20T15:18:00.949Z,2.97
2022-08-20T15:20:31.677Z,1.10
2022-08-20T15:25:37.071Z,0.80
2022-08-20T15:28:09.020Z,0.28
2022-08-20T15:30:39.400Z,2.22
2022-08-20T15:33:07.013Z,0.20
2022-08-20T15:35:34.211Z,0.28
2022-08-20T15:38:01.766Z,0.30
2022-08-20T15:40:32.013Z,1.77
2022-08-20T15:43:01.509Z,0.98
2022-08-20T15:45:28.864Z,0.60
2022-08-20T15:48:14.083Z,0.40
2022-08-20T15:51:27.537Z,0.50
2022-08-20T15:53:57.835Z,0.50
2022-08-20T15:56:39.579Z,1.48
2022-08-20T15:59:32.453Z,0.60
2022-08-20T16:02:43.197Z,0.50
2022-08-20T16:05:19.250Z,0.43
2022-08-20T16:08:05.534Z,0.55
2022-08-20T16:11:11.433Z,0.88
2022-08-20T16:13:47.762Z,0.50
2022-08-20T16:16:26.662Z,0.70
2022-08-20T16:18:55.403Z,1.42
2022-08-20T16:21:37.202Z,1.55
2022-08-20T16:24:07.186Z,0.50
2022-08-20T16:27:01.603Z,1.85
2022-08-20T16:29:53.864Z,2.20
2022-08-20T16:32:31.012Z,0.82
2022-08-20T16:35:10.249Z,1.23
2022-08-20T16:37:56.145Z,1.30
2022-08-20T16:40:32.872Z,1.20
2022-08-20T16:43:06.148Z,0.85
2022-08-20T16:45:45.534Z,1.20
2022-08-20T16:48:18.838Z,1.00
2022-08-20T16:51:03.021Z,1.33
2022-08-20T16:53:30.153Z,1.60
2022-08-20T16:55:57.594Z,1.40
2022-08-20T16:58:25.291Z,1.10
2022-08-20T17:01:14.462Z,1.08
2022-08-20T17:03:50.593Z,1.92
2022-08-20T17:06:39.868Z,1.20
2022-08-20T17:09:14.766Z,1.08
2022-08-20T17:11:47.301Z,1.55
2022-08-20T17:14:18.690Z,1.40
2022-08-20T17:16:51.318Z,1.42
2022-08-20T17:19:32.419Z,1.10
2022-08-20T17:22:19.144Z,2.03
2022-08-20T17:24:46.354Z,0.90
2022-08-20T17:27:28.944Z,1.33
2022-08-20T17:30:11.033Z,1.40
2022-08-20T17:33:01.032Z,1.08
2022-08-20T17:36:01.184Z,1.23
2022-08-20T17:38:33.859Z,0.88
2022-08-20T17:41:17.254Z,1.10
2022-08-20T17:43:45.414Z,1.23
2022-08-20T17:46:16.655Z,1.33
2022-08-20T17:48:48.196Z,2.03
2022-08-20T17:51:37.947Z,1.75
2022-08-20T17:54:33.102Z,1.67
2022-08-20T17:57:07.182Z,1.52
2022-08-20T18:00:00.772Z,1.35
2022-08-20T18:02:29.862Z,1.67
2022-08-20T18:04:57.345Z,6.93
2022-08-20T18:11:10.741Z,1.23
2022-08-20T18:13:49.666Z,1.20
2022-08-20T18:16:56.485Z,1.85
2022-08-20T18:20:00.551Z,1.58
2022-08-20T18:22:34.075Z,1.58
2022-08-20T18:25:28.681Z,2.15
2022-08-20T18:28:07.082Z,1.30
2022-08-20T18:30:35.029Z,2.72
2022-08-20T18:33:09.777Z,1.50
2022-08-20T18:35:45.837Z,1.75
2022-08-20T18:38:22.616Z,2.05
2022-08-20T18:40:54.590Z,1.67
2022-08-20T18:43:31.392Z,1.90
2022-08-20T18:46:23.327Z,1.40
2022-08-20T18:49:01.859Z,1.63
2022-08-20T18:51:39.861Z,2.40
2022-08-20T18:54:07.511Z,1.60
2022-08-20T18:56:42.334Z,1.73
2022-08-20T18:59:18.820Z,1.90
2022-08-20T19:01:49.477Z,1.50
2022-08-20T19:04:33.752Z,1.60
2022-08-20T19:07:06.108Z,1.90
2022-08-20T19:09:59.114Z,1.75
2022-08-20T19:13:08.375Z,2.13
2022-08-20T19:15:50.858Z,1.70
2022-08-20T19:18:41.420Z,1.70
2022-08-20T19:21:15.385Z,1.40
2022-08-20T19:23:50.179Z,1.65
2022-08-20T19:26:25.970Z,1.27
2022-08-20T19:29:17.257Z,1.30
2022-08-20T19:34:20.247Z,1.75
2022-08-20T19:37:35.762Z,1.63
2022-08-20T19:40:20.835Z,1.70
2022-08-20T19:42:49.475Z,2.00
2022-08-20T19:45:43.699Z,1.60
2022-08-20T19:48:27.609Z,1.52
2022-08-20T19:51:05.043Z,1.85
2022-08-20T19:53:36.564Z,1.50
2022-08-20T19:56:19.717Z,1.80
2022-08-20T19:59:00.365Z,1.63
2022-08-20T20:01:28.236Z,1.73
2022-08-20T20:04:03.291Z,2.00
2022-08-20T20:06:36.772Z,1.60
2022-08-20T20:09:17.465Z,1.75
2022-08-20T20:11:57.624Z,3.10
2022-08-20T20:14:32.600Z,1.55
2022-08-20T20:17:04.125Z,1.52
2022-08-20T20:19:31.123Z,1.77
2022-08-20T20:22:22.585Z,1.67
2022-08-20T20:25:17.275Z,1.80
2022-08-20T20:27:57.437Z,1.58
2022-08-20T20:30:34.248Z,2.00
2022-08-20T20:33:15.248Z,1.75
2022-08-20T20:35:44.415Z,1.40
2022-08-20T20:38:26.441Z,1.65
2022-08-20T20:40:58.009Z,1.80
2022-08-20T20:43:31.310Z,1.75
2022-08-20T20:46:28.780Z,1.20
2022-08-20T20:49:23.514Z,1.88
2022-08-20T20:52:49.400Z,1.40
2022-08-20T20:55:29.176Z,2.17
2022-08-20T20:57:57.718Z,1.85
2022-08-20T21:00:29.601Z,1.60
2022-08-20T21:02:57.295Z,1.50
2022-08-20T21:05:28.704Z,1.67
2022-08-20T21:08:04.037Z,1.67
2022-08-20T21:10:35.385Z,1.40
2022-08-20T21:13:06.578Z,1.60
2022-08-20T21:15:34.744Z,1.95
2022-08-20T21:18:05.246Z,1.30
2022-08-20T21:20:33.211Z,1.95
2022-08-20T21:23:00.196Z,1.50
2022-08-20T21:25:29.585Z,1.50
2022-08-20T21:27:57.239Z,1.67
2022-08-20T21:30:25.213Z,1.90
2022-08-20T21:32:53.672Z,2.08
2022-08-20T21:35:21.304Z,1.25
2022-08-20T21:37:48.423Z,1.40
2022-08-20T21:40:15.393Z,1.23
2022-08-20T21:42:45.188Z,1.58
2022-08-20T21:45:18.417Z,1.42
2022-08-20T21:47:46.854Z,1.27
2022-08-20T21:50:19.700Z,1.52
2022-08-20T21:52:55.053Z,1.50
2022-08-20T21:55:29.192Z,1.35
2022-08-20T21:57:57.271Z,1.25
2022-08-20T22:00:54.470Z,1.23
2022-08-20T22:03:30.448Z,1.20
2022-08-20T22:06:00.025Z,2.40
2022-08-20T22:08:28.531Z,1.25
2022-08-20T22:10:58.473Z,1.60
2022-08-20T22:13:32.772Z,1.30
2022-08-20T22:16:02.414Z,0.98
2022-08-20T22:18:29.906Z,1.60
2022-08-20T22:20:57.437Z,1.50
2022-08-20T22:23:25.200Z,1.40
2022-08-20T22:25:52.181Z,1.40
2022-08-20T22:28:19.838Z,1.23
2022-08-20T22:30:46.810Z,1.45
2022-08-20T22:33:20.823Z,1.08
2022-08-20T22:35:52.747Z,1.00
2022-08-20T22:38:20.818Z,1.13
2022-08-20T22:40:48.035Z,1.20
2022-08-20T22:43:15.854Z,1.15
2022-08-20T22:45:46.655Z,1.25
2022-08-20T22:50:44.944Z,1.35
2022-08-20T22:53:14.192Z,1.45
2022-08-20T22:55:42.685Z,0.85
2022-08-20T22:58:10.246Z,1.25
2022-08-20T23:00:37.875Z,1.20
2022-08-20T23:03:06.016Z,0.90
2022-08-20T23:05:36.588Z,1.00
2022-08-20T23:08:06.102Z,1.50
2022-08-20T23:10:35.460Z,1.27
2022-08-20T23:13:02.841Z,1.08
2022-08-20T23:15:32.804Z,1.10
2022-08-20T23:18:09.585Z,4.23
2022-08-20T23:20:36.787Z,1.40
2022-08-20T23:23:05.515Z,1.20
2022-08-20T23:25:33.345Z,0.93
2022-08-20T23:28:04.068Z,1.17
2022-08-20T23:30:32.523Z,1.27
2022-08-20T23:33:01.533Z,0.85
2022-08-20T23:35:33.073Z,0.90
2022-08-20T23:38:00.559Z,1.25
2022-08-20T23:40:29.506Z,1.17
2022-08-20T23:42:57.809Z,1.15
2022-08-20T23:45:25.131Z,1.17
2022-08-20T23:47:52.864Z,1.05
2022-08-20T23:50:25.162Z,1.35
2022-08-20T23:52:53.598Z,0.98
2022-08-20T23:55:22.717Z,0.80
2022-08-20T23:57:50.881Z,1.02
